sensor_id;sensor_type;location;lat;lon;timestamp;P1;durP1;ratioP1;P2;durP2;ratioP2
2772;SDS011;1394;47.044;15.744;2022-09-02T00:01:36;3.27;;;2.10;;
2772;SDS011;1394;47.044;15.744;2022-09-02T00:04:05;2.53;;;2.17;;
2772;SDS011;1394;47.044;15.744;2022-09-02T00:06:34;2.10;;;1.90;;
2772;SDS011;1394;47.044;15.744;2022-09-02T00:09:03;2.70;;;2.50;;
2772;SDS011;1394;47.044;15.744;2022-09-02T00:11:31;3.07;;;2.10;;
2772;SDS011;1394;47.044;15.744;2022-09-02T00:13:59;3.60;;;2.40;;
2772;SDS011;1394;47.044;15.744;2022-09-02T00:16:27;3.63;;;2.40;;
2772;SDS011;1394;47.044;15.744;2022-09-02T00:18:55;3.30;;;2.73;;
2772;SDS011;1394;47.044;15.744;2022-09-02T00:21:23;3.20;;;2.00;;
2772;SDS011;1394;47.044;15.744;2022-09-02T00:23:51;2.70;;;2.40;;
2772;SDS011;1394;47.044;15.744;2022-09-02T00:26:20;2.30;;;1.80;;
2772;SDS011;1394;47.044;15.744;2022-09-02T00:28:48;4.87;;;1.90;;
2772;SDS011;1394;47.044;15.744;2022-09-02T00:31:16;3.13;;;1.90;;
2772;SDS011;1394;47.044;15.744;2022-09-02T00:33:43;4.17;;;1.97;;
2772;SDS011;1394;47.044;15.744;2022-09-02T00:36:10;2.77;;;2.40;;
2772;SDS011;1394;47.044;15.744;2022-09-02T00:38:38;3.37;;;2.33;;
2772;SDS011;1394;47.044;15.744;2022-09-02T00:41:06;5.73;;;2.40;;
2772;SDS011;1394;47.044;15.744;2022-09-02T00:43:43;4.60;;;1.77;;
2772;SDS011;1394;47.044;15.744;2022-09-02T00:46:11;3.40;;;2.30;;
2772;SDS011;1394;47.044;15.744;2022-09-02T00:48:39;4.83;;;2.60;;
2772;SDS011;1394;47.044;15.744;2022-09-02T00:51:08;2.90;;;1.97;;
2772;SDS011;1394;47.044;15.744;2022-09-02T00:53:36;2.80;;;2.27;;
2772;SDS011;1394;47.044;15.744;2022-09-02T00:56:05;8.20;;;2.40;;
2772;SDS011;1394;47.044;15.744;2022-09-02T00:58:34;2.87;;;2.00;;
2772;SDS011;1394;47.044;15.744;2022-09-02T01:01:04;2.83;;;2.40;;
2772;SDS011;1394;47.044;15.744;2022-09-02T01:03:32;3.23;;;2.30;;
2772;SDS011;1394;47.044;15.744;2022-09-02T01:06:00;1.97;;;1.73;;
2772;SDS011;1394;47.044;15.744;2022-09-02T01:08:28;4.57;;;2.30;;
2772;SDS011;1394;47.044;15.744;2022-09-02T01:10:56;2.67;;;1.80;;
2772;SDS011;1394;47.044;15.744;2022-09-02T01:13:25;2.43;;;2.10;;
2772;SDS011;1394;47.044;15.744;2022-09-02T01:15:54;3.10;;;2.57;;
2772;SDS011;1394;47.044;15.744;2022-09-02T01:18:25;2.77;;;1.97;;
2772;SDS011;1394;47.044;15.744;2022-09-02T01:20:53;2.37;;;2.00;;
2772;SDS011;1394;47.044;15.744;2022-09-02T01:23:22;3.30;;;2.10;;
2772;SDS011;1394;47.044;15.744;2022-09-02T01:25:49;3.77;;;2.00;;
2772;SDS011;1394;47.044;15.744;2022-09-02T01:28:17;3.93;;;2.53;;
2772;SDS011;1394;47.044;15.744;2022-09-02T01:30:46;8.73;;;2.27;;
2772;SDS011;1394;47.044;15.744;2022-09-02T01:33:17;2.53;;;2.30;;
2772;SDS011;1394;47.044;15.744;2022-09-02T01:35:44;3.20;;;2.23;;
2772;SDS011;1394;47.044;15.744;2022-09-02T01:38:12;5.73;;;2.67;;
2772;SDS011;1394;47.044;15.744;2022-09-02T01:40:41;2.97;;;2.10;;
2772;SDS011;1394;47.044;15.744;2022-09-02T01:43:13;5.03;;;2.40;;
2772;SDS011;1394;47.044;15.744;2022-09-02T01:45:42;3.13;;;2.77;;
2772;SDS011;1394;47.044;15.744;2022-09-02T01:48:10;2.60;;;2.03;;
2772;SDS011;1394;47.044;15.744;2022-09-02T01:50:39;3.43;;;2.40;;
2772;SDS011;1394;47.044;15.744;2022-09-02T01:53:06;7.27;;;2.80;;
2772;SDS011;1394;47.044;15.744;2022-09-02T01:55:34;6.70;;;2.60;;
2772;SDS011;1394;47.044;15.744;2022-09-02T01:58:03;3.37;;;2.10;;
2772;SDS011;1394;47.044;15.744;2022-09-02T02:00:30;4.60;;;2.20;;
2772;SDS011;1394;47.044;15.744;2022-09-02T02:03:00;3.67;;;2.00;;
2772;SDS011;1394;47.044;15.744;2022-09-02T02:05:28;3.07;;;2.40;;
2772;SDS011;1394;47.044;15.744;2022-09-02T02:07:56;2.67;;;2.13;;
2772;SDS011;1394;47.044;15.744;2022-09-02T02:10:26;2.27;;;1.90;;
2772;SDS011;1394;47.044;15.744;2022-09-02T02:12:53;4.00;;;2.30;;
2772;SDS011;1394;47.044;15.744;2022-09-02T02:15:22;2.33;;;2.13;;
2772;SDS011;1394;47.044;15.744;2022-09-02T02:17:50;3.23;;;1.93;;
2772;SDS011;1394;47.044;15.744;2022-09-02T02:20:18;2.83;;;2.03;;
2772;SDS011;1394;47.044;15.744;2022-09-02T02:22:46;3.90;;;2.23;;
2772;SDS011;1394;47.044;15.744;2022-09-02T02:25:14;3.43;;;2.00;;
2772;SDS011;1394;47.044;15.744;2022-09-02T02:27:42;3.13;;;1.90;;
2772;SDS011;1394;47.044;15.744;2022-09-02T02:30:10;4.20;;;1.90;;
2772;SDS011;1394;47.044;15.744;2022-09-02T02:32:39;3.50;;;1.97;;
2772;SDS011;1394;47.044;15.744;2022-09-02T02:35:07;4.53;;;2.30;;
2772;SDS011;1394;47.044;15.744;2022-09-02T02:37:35;3.57;;;2.30;;
2772;SDS011;1394;47.044;15.744;2022-09-02T02:40:02;2.80;;;1.90;;
2772;SDS011;1394;47.044;15.744;2022-09-02T02:42:30;2.60;;;1.97;;
2772;SDS011;1394;47.044;15.744;2022-09-02T02:44:57;4.33;;;2.57;;
2772;SDS011;1394;47.044;15.744;2022-09-02T02:47:24;6.00;;;2.23;;
2772;SDS011;1394;47.044;15.744;2022-09-02T02:49:56;3.43;;;2.17;;
2772;SDS011;1394;47.044;15.744;2022-09-02T02:52:23;2.80;;;2.33;;
2772;SDS011;1394;47.044;15.744;2022-09-02T02:54:54;2.97;;;2.17;;
2772;SDS011;1394;47.044;15.744;2022-09-02T02:57:21;4.33;;;2.50;;
2772;SDS011;1394;47.044;15.744;2022-09-02T02:59:54;4.23;;;2.07;;
2772;SDS011;1394;47.044;15.744;2022-09-02T03:02:22;2.33;;;2.03;;
2772;SDS011;1394;47.044;15.744;2022-09-02T03:04:49;3.00;;;2.33;;
2772;SDS011;1394;47.044;15.744;2022-09-02T03:07:20;3.90;;;2.40;;
2772;SDS011;1394;47.044;15.744;2022-09-02T03:09:47;6.53;;;2.37;;
2772;SDS011;1394;47.044;15.744;2022-09-02T03:12:14;5.87;;;2.60;;
2772;SDS011;1394;47.044;15.744;2022-09-02T03:14:42;3.27;;;2.30;;
2772;SDS011;1394;47.044;15.744;2022-09-02T03:17:10;3.57;;;2.20;;
2772;SDS011;1394;47.044;15.744;2022-09-02T03:19:37;3.63;;;2.20;;
2772;SDS011;1394;47.044;15.744;2022-09-02T03:22:04;3.30;;;2.20;;
2772;SDS011;1394;47.044;15.744;2022-09-02T03:24:37;5.10;;;2.47;;
2772;SDS011;1394;47.044;15.744;2022-09-02T03:27:05;3.90;;;2.37;;
2772;SDS011;1394;47.044;15.744;2022-09-02T03:29:32;3.30;;;2.43;;
2772;SDS011;1394;47.044;15.744;2022-09-02T03:32:00;4.60;;;2.50;;
2772;SDS011;1394;47.044;15.744;2022-09-02T03:34:27;3.13;;;2.30;;
2772;SDS011;1394;47.044;15.744;2022-09-02T03:36:54;8.33;;;3.37;;
2772;SDS011;1394;47.044;15.744;2022-09-02T03:39:21;4.00;;;2.87;;
2772;SDS011;1394;47.044;15.744;2022-09-02T03:41:50;5.13;;;2.60;;
2772;SDS011;1394;47.044;15.744;2022-09-02T03:44:17;2.73;;;2.50;;
2772;SDS011;1394;47.044;15.744;2022-09-02T03:46:45;5.90;;;2.50;;
2772;SDS011;1394;47.044;15.744;2022-09-02T03:49:15;4.57;;;2.27;;
2772;SDS011;1394;47.044;15.744;2022-09-02T03:51:42;10.60;;;2.70;;
2772;SDS011;1394;47.044;15.744;2022-09-02T03:54:10;4.77;;;2.40;;
2772;SDS011;1394;47.044;15.744;2022-09-02T03:56:37;4.13;;;3.20;;
2772;SDS011;1394;47.044;15.744;2022-09-02T03:59:06;3.30;;;2.43;;
2772;SDS011;1394;47.044;15.744;2022-09-02T04:01:34;3.40;;;2.43;;
2772;SDS011;1394;47.044;15.744;2022-09-02T04:04:02;5.03;;;2.63;;
2772;SDS011;1394;47.044;15.744;2022-09-02T04:06:30;3.10;;;2.30;;
2772;SDS011;1394;47.044;15.744;2022-09-02T04:09:00;2.93;;;2.63;;
2772;SDS011;1394;47.044;15.744;2022-09-02T04:11:28;2.60;;;2.37;;
2772;SDS011;1394;47.044;15.744;2022-09-02T04:13:57;5.20;;;2.90;;
2772;SDS011;1394;47.044;15.744;2022-09-02T04:16:26;3.93;;;2.20;;
2772;SDS011;1394;47.044;15.744;2022-09-02T04:18:55;5.40;;;2.77;;
2772;SDS011;1394;47.044;15.744;2022-09-02T04:21:24;4.93;;;3.73;;
2772;SDS011;1394;47.044;15.744;2022-09-02T04:23:57;4.73;;;2.97;;
2772;SDS011;1394;47.044;15.744;2022-09-02T04:26:24;3.83;;;2.53;;
2772;SDS011;1394;47.044;15.744;2022-09-02T04:28:51;3.20;;;2.30;;
2772;SDS011;1394;47.044;15.744;2022-09-02T04:31:19;3.77;;;2.40;;
2772;SDS011;1394;47.044;15.744;2022-09-02T04:33:51;3.60;;;2.50;;
2772;SDS011;1394;47.044;15.744;2022-09-02T04:36:19;7.20;;;2.90;;
2772;SDS011;1394;47.044;15.744;2022-09-02T04:38:46;2.60;;;2.00;;
2772;SDS011;1394;47.044;15.744;2022-09-02T04:41:14;11.83;;;2.70;;
2772;SDS011;1394;47.044;15.744;2022-09-02T04:43:42;3.60;;;2.53;;
2772;SDS011;1394;47.044;15.744;2022-09-02T04:46:13;2.43;;;1.93;;
2772;SDS011;1394;47.044;15.744;2022-09-02T04:48:40;3.20;;;2.57;;
2772;SDS011;1394;47.044;15.744;2022-09-02T04:51:10;4.43;;;2.10;;
2772;SDS011;1394;47.044;15.744;2022-09-02T04:53:37;3.10;;;2.80;;
2772;SDS011;1394;47.044;15.744;2022-09-02T04:56:05;3.93;;;2.97;;
2772;SDS011;1394;47.044;15.744;2022-09-02T04:58:33;4.00;;;3.20;;
2772;SDS011;1394;47.044;15.744;2022-09-02T05:01:04;5.70;;;3.00;;
2772;SDS011;1394;47.044;15.744;2022-09-02T05:03:32;3.43;;;2.53;;
2772;SDS011;1394;47.044;15.744;2022-09-02T05:06:01;3.43;;;2.40;;
2772;SDS011;1394;47.044;15.744;2022-09-02T05:08:30;4.93;;;3.10;;
2772;SDS011;1394;47.044;15.744;2022-09-02T05:11:03;5.73;;;3.00;;
2772;SDS011;1394;47.044;15.744;2022-09-02T05:13:31;7.40;;;2.83;;
2772;SDS011;1394;47.044;15.744;2022-09-02T05:15:58;6.53;;;2.60;;
2772;SDS011;1394;47.044;15.744;2022-09-02T05:18:25;3.20;;;2.33;;
2772;SDS011;1394;47.044;15.744;2022-09-02T05:20:55;2.87;;;2.40;;
2772;SDS011;1394;47.044;15.744;2022-09-02T05:23:23;2.70;;;2.50;;
2772;SDS011;1394;47.044;15.744;2022-09-02T05:25:51;7.53;;;3.30;;
2772;SDS011;1394;47.044;15.744;2022-09-02T05:28:18;5.30;;;2.90;;
2772;SDS011;1394;47.044;15.744;2022-09-02T05:30:46;4.60;;;3.00;;
2772;SDS011;1394;47.044;15.744;2022-09-02T05:33:13;3.70;;;2.80;;
2772;SDS011;1394;47.044;15.744;2022-09-02T05:35:41;3.83;;;2.60;;
2772;SDS011;1394;47.044;15.744;2022-09-02T05:38:08;4.37;;;3.30;;
2772;SDS011;1394;47.044;15.744;2022-09-02T05:40:36;6.50;;;2.97;;
2772;SDS011;1394;47.044;15.744;2022-09-02T05:43:04;4.53;;;3.20;;
2772;SDS011;1394;47.044;15.744;2022-09-02T05:45:32;7.20;;;2.93;;
2772;SDS011;1394;47.044;15.744;2022-09-02T05:48:03;5.50;;;4.10;;
2772;SDS011;1394;47.044;15.744;2022-09-02T05:50:51;2.83;;;2.40;;
2772;SDS011;1394;47.044;15.744;2022-09-02T05:53:18;3.33;;;2.70;;
2772;SDS011;1394;47.044;15.744;2022-09-02T05:55:46;4.40;;;2.80;;
2772;SDS011;1394;47.044;15.744;2022-09-02T05:58:15;3.83;;;3.00;;
2772;SDS011;1394;47.044;15.744;2022-09-02T06:00:43;3.80;;;2.80;;
2772;SDS011;1394;47.044;15.744;2022-09-02T06:03:10;9.00;;;3.00;;
2772;SDS011;1394;47.044;15.744;2022-09-02T06:05:38;7.00;;;3.00;;
2772;SDS011;1394;47.044;15.744;2022-09-02T06:08:06;4.73;;;3.53;;
2772;SDS011;1394;47.044;15.744;2022-09-02T06:10:33;6.70;;;3.10;;
2772;SDS011;1394;47.044;15.744;2022-09-02T06:13:07;3.60;;;2.97;;
2772;SDS011;1394;47.044;15.744;2022-09-02T06:15:40;4.17;;;3.10;;
2772;SDS011;1394;47.044;15.744;2022-09-02T06:18:08;3.90;;;2.93;;
2772;SDS011;1394;47.044;15.744;2022-09-02T06:20:38;4.17;;;3.20;;
2772;SDS011;1394;47.044;15.744;2022-09-02T06:23:05;3.40;;;3.10;;
2772;SDS011;1394;47.044;15.744;2022-09-02T06:25:34;5.87;;;3.57;;
2772;SDS011;1394;47.044;15.744;2022-09-02T06:28:02;3.40;;;3.10;;
2772;SDS011;1394;47.044;15.744;2022-09-02T06:30:29;5.83;;;3.43;;
2772;SDS011;1394;47.044;15.744;2022-09-02T06:32:58;4.40;;;3.13;;
2772;SDS011;1394;47.044;15.744;2022-09-02T06:35:34;13.60;;;5.00;;
2772;SDS011;1394;47.044;15.744;2022-09-02T06:38:02;5.47;;;3.40;;
2772;SDS011;1394;47.044;15.744;2022-09-02T06:40:29;4.30;;;3.90;;
2772;SDS011;1394;47.044;15.744;2022-09-02T06:42:57;6.00;;;3.97;;
2772;SDS011;1394;47.044;15.744;2022-09-02T06:45:24;3.73;;;3.20;;
2772;SDS011;1394;47.044;15.744;2022-09-02T06:47:52;5.37;;;3.97;;
2772;SDS011;1394;47.044;15.744;2022-09-02T06:50:20;5.23;;;3.33;;
2772;SDS011;1394;47.044;15.744;2022-09-02T06:52:48;2.63;;;2.43;;
2772;SDS011;1394;47.044;15.744;2022-09-02T06:55:15;3.13;;;2.43;;
2772;SDS011;1394;47.044;15.744;2022-09-02T06:57:45;2.83;;;2.43;;
2772;SDS011;1394;47.044;15.744;2022-09-02T07:00:15;6.83;;;3.00;;
2772;SDS011;1394;47.044;15.744;2022-09-02T07:02:42;4.10;;;2.80;;
2772;SDS011;1394;47.044;15.744;2022-09-02T07:05:31;4.30;;;2.40;;
2772;SDS011;1394;47.044;15.744;2022-09-02T07:07:57;6.50;;;2.20;;
2772;SDS011;1394;47.044;15.744;2022-09-02T07:10:25;3.87;;;2.40;;
2772;SDS011;1394;47.044;15.744;2022-09-02T07:12:54;2.67;;;2.00;;
2772;SDS011;1394;47.044;15.744;2022-09-02T07:15:22;2.50;;;1.80;;
2772;SDS011;1394;47.044;15.744;2022-09-02T07:17:53;2.70;;;2.10;;
2772;SDS011;1394;47.044;15.744;2022-09-02T07:20:20;4.43;;;2.40;;
2772;SDS011;1394;47.044;15.744;2022-09-02T07:22:49;3.10;;;1.90;;
2772;SDS011;1394;47.044;15.744;2022-09-02T07:25:16;2.60;;;1.70;;
2772;SDS011;1394;47.044;15.744;2022-09-02T07:27:44;2.70;;;1.60;;
2772;SDS011;1394;47.044;15.744;2022-09-02T07:30:12;3.00;;;1.60;;
2772;SDS011;1394;47.044;15.744;2022-09-02T07:32:39;2.60;;;1.80;;
2772;SDS011;1394;47.044;15.744;2022-09-02T07:35:06;2.93;;;1.60;;
2772;SDS011;1394;47.044;15.744;2022-09-02T07:37:34;2.77;;;1.40;;
2772;SDS011;1394;47.044;15.744;2022-09-02T07:40:03;2.97;;;1.60;;
2772;SDS011;1394;47.044;15.744;2022-09-02T07:42:31;2.37;;;1.63;;
2772;SDS011;1394;47.044;15.744;2022-09-02T07:44:58;3.03;;;1.50;;
2772;SDS011;1394;47.044;15.744;2022-09-02T07:47:25;3.80;;;1.47;;
2772;SDS011;1394;47.044;15.744;2022-09-02T07:49:53;3.20;;;1.50;;
2772;SDS011;1394;47.044;15.744;2022-09-02T07:52:20;2.40;;;1.40;;
2772;SDS011;1394;47.044;15.744;2022-09-02T07:54:47;4.40;;;1.90;;
2772;SDS011;1394;47.044;15.744;2022-09-02T07:57:16;2.40;;;1.80;;
2772;SDS011;1394;47.044;15.744;2022-09-02T07:59:44;3.40;;;1.80;;
2772;SDS011;1394;47.044;15.744;2022-09-02T08:02:12;2.07;;;1.43;;
2772;SDS011;1394;47.044;15.744;2022-09-02T08:04:39;2.97;;;1.70;;
2772;SDS011;1394;47.044;15.744;2022-09-02T08:07:08;2.67;;;1.80;;
2772;SDS011;1394;47.044;15.744;2022-09-02T08:09:35;2.33;;;1.60;;
2772;SDS011;1394;47.044;15.744;2022-09-02T08:12:03;2.07;;;1.67;;
2772;SDS011;1394;47.044;15.744;2022-09-02T08:14:32;7.40;;;1.90;;
2772;SDS011;1394;47.044;15.744;2022-09-02T08:16:59;4.63;;;1.70;;
2772;SDS011;1394;47.044;15.744;2022-09-02T08:19:27;2.40;;;1.40;;
2772;SDS011;1394;47.044;15.744;2022-09-02T08:21:54;2.30;;;1.60;;
2772;SDS011;1394;47.044;15.744;2022-09-02T08:24:21;2.47;;;1.80;;
2772;SDS011;1394;47.044;15.744;2022-09-02T08:26:49;2.50;;;1.50;;
2772;SDS011;1394;47.044;15.744;2022-09-02T08:29:16;3.43;;;1.40;;
2772;SDS011;1394;47.044;15.744;2022-09-02T08:31:45;2.23;;;1.70;;
2772;SDS011;1394;47.044;15.744;2022-09-02T08:34:12;3.40;;;1.87;;
2772;SDS011;1394;47.044;15.744;2022-09-02T08:36:41;2.30;;;1.40;;
2772;SDS011;1394;47.044;15.744;2022-09-02T08:39:10;2.40;;;1.80;;
2772;SDS011;1394;47.044;15.744;2022-09-02T08:41:40;2.87;;;2.07;;
2772;SDS011;1394;47.044;15.744;2022-09-02T08:44:09;2.60;;;1.33;;
2772;SDS011;1394;47.044;15.744;2022-09-02T08:46:38;3.53;;;1.60;;
2772;SDS011;1394;47.044;15.744;2022-09-02T08:49:10;3.63;;;1.80;;
2772;SDS011;1394;47.044;15.744;2022-09-02T08:51:40;3.20;;;1.23;;
2772;SDS011;1394;47.044;15.744;2022-09-02T08:54:14;2.70;;;1.30;;
2772;SDS011;1394;47.044;15.744;2022-09-02T08:56:43;2.57;;;1.37;;
2772;SDS011;1394;47.044;15.744;2022-09-02T08:59:12;3.50;;;1.63;;
2772;SDS011;1394;47.044;15.744;2022-09-02T09:01:41;4.20;;;1.57;;
2772;SDS011;1394;47.044;15.744;2022-09-02T09:04:23;2.73;;;1.30;;
2772;SDS011;1394;47.044;15.744;2022-09-02T09:06:58;2.07;;;1.30;;
2772;SDS011;1394;47.044;15.744;2022-09-02T09:09:31;3.40;;;1.30;;
2772;SDS011;1394;47.044;15.744;2022-09-02T09:12:03;2.67;;;1.30;;
2772;SDS011;1394;47.044;15.744;2022-09-02T09:14:33;1.90;;;1.27;;
2772;SDS011;1394;47.044;15.744;2022-09-02T09:17:04;2.60;;;1.50;;
2772;SDS011;1394;47.044;15.744;2022-09-02T09:19:38;2.53;;;1.30;;
2772;SDS011;1394;47.044;15.744;2022-09-02T09:22:09;2.37;;;1.10;;
2772;SDS011;1394;47.044;15.744;2022-09-02T09:24:38;2.00;;;1.10;;
2772;SDS011;1394;47.044;15.744;2022-09-02T09:27:07;2.73;;;1.40;;
2772;SDS011;1394;47.044;15.744;2022-09-02T09:29:36;2.60;;;1.63;;
2772;SDS011;1394;47.044;15.744;2022-09-02T09:32:03;2.40;;;1.60;;
2772;SDS011;1394;47.044;15.744;2022-09-02T09:37:27;2.87;;;1.30;;
2772;SDS011;1394;47.044;15.744;2022-09-02T09:39:54;2.60;;;1.80;;
2772;SDS011;1394;47.044;15.744;2022-09-02T09:42:29;2.07;;;1.40;;
2772;SDS011;1394;47.044;15.744;2022-09-02T09:44:56;2.67;;;1.47;;
2772;SDS011;1394;47.044;15.744;2022-09-02T09:47:24;2.87;;;1.87;;
2772;SDS011;1394;47.044;15.744;2022-09-02T09:49:52;3.60;;;1.70;;
2772;SDS011;1394;47.044;15.744;2022-09-02T09:52:27;5.30;;;2.13;;
2772;SDS011;1394;47.044;15.744;2022-09-02T09:55:09;3.90;;;1.73;;
2772;SDS011;1394;47.044;15.744;2022-09-02T09:57:37;2.30;;;1.50;;
2772;SDS011;1394;47.044;15.744;2022-09-02T10:00:18;4.90;;;1.90;;
2772;SDS011;1394;47.044;15.744;2022-09-02T10:02:47;3.50;;;1.33;;
2772;SDS011;1394;47.044;15.744;2022-09-02T10:05:26;3.10;;;1.50;;
2772;SDS011;1394;47.044;15.744;2022-09-02T10:07:56;2.60;;;1.50;;
2772;SDS011;1394;47.044;15.744;2022-09-02T10:10:24;3.80;;;1.47;;
2772;SDS011;1394;47.044;15.744;2022-09-02T10:12:53;3.40;;;1.63;;
2772;SDS011;1394;47.044;15.744;2022-09-02T10:15:24;3.77;;;1.60;;
2772;SDS011;1394;47.044;15.744;2022-09-02T10:17:55;3.17;;;1.47;;
2772;SDS011;1394;47.044;15.744;2022-09-02T10:20:32;2.20;;;1.30;;
2772;SDS011;1394;47.044;15.744;2022-09-02T10:23:18;2.10;;;1.23;;
2772;SDS011;1394;47.044;15.744;2022-09-02T10:25:51;3.47;;;1.73;;
2772;SDS011;1394;47.044;15.744;2022-09-02T10:28:26;3.30;;;1.70;;
2772;SDS011;1394;47.044;15.744;2022-09-02T10:30:59;3.20;;;1.40;;
2772;SDS011;1394;47.044;15.744;2022-09-02T10:33:39;2.50;;;1.30;;
2772;SDS011;1394;47.044;15.744;2022-09-02T10:36:10;2.80;;;1.30;;
2772;SDS011;1394;47.044;15.744;2022-09-02T10:38:42;3.37;;;1.40;;
2772;SDS011;1394;47.044;15.744;2022-09-02T10:41:18;2.40;;;1.57;;
2772;SDS011;1394;47.044;15.744;2022-09-02T10:43:54;2.20;;;1.30;;
2772;SDS011;1394;47.044;15.744;2022-09-02T10:46:24;4.80;;;1.60;;
2772;SDS011;1394;47.044;15.744;2022-09-02T10:48:54;2.77;;;1.30;;
2772;SDS011;1394;47.044;15.744;2022-09-02T10:51:25;1.83;;;1.00;;
2772;SDS011;1394;47.044;15.744;2022-09-02T10:54:00;1.90;;;1.20;;
2772;SDS011;1394;47.044;15.744;2022-09-02T10:56:34;2.33;;;1.60;;
2772;SDS011;1394;47.044;15.744;2022-09-02T10:59:06;4.13;;;1.37;;
2772;SDS011;1394;47.044;15.744;2022-09-02T11:01:34;2.70;;;1.53;;
2772;SDS011;1394;47.044;15.744;2022-09-02T11:04:06;2.53;;;1.53;;
2772;SDS011;1394;47.044;15.744;2022-09-02T11:06:35;2.90;;;1.47;;
2772;SDS011;1394;47.044;15.744;2022-09-02T11:09:06;2.03;;;1.33;;
2772;SDS011;1394;47.044;15.744;2022-09-02T11:11:39;3.40;;;1.50;;
2772;SDS011;1394;47.044;15.744;2022-09-02T11:14:11;2.00;;;1.10;;
2772;SDS011;1394;47.044;15.744;2022-09-02T11:16:43;3.27;;;1.67;;
2772;SDS011;1394;47.044;15.744;2022-09-02T11:19:17;2.67;;;1.17;;
2772;SDS011;1394;47.044;15.744;2022-09-02T11:21:48;3.23;;;1.30;;
2772;SDS011;1394;47.044;15.744;2022-09-02T11:24:19;4.57;;;1.43;;
2772;SDS011;1394;47.044;15.744;2022-09-02T11:26:51;4.27;;;1.30;;
2772;SDS011;1394;47.044;15.744;2022-09-02T11:29:21;2.87;;;1.43;;
2772;SDS011;1394;47.044;15.744;2022-09-02T11:31:54;4.20;;;1.67;;
2772;SDS011;1394;47.044;15.744;2022-09-02T11:34:25;3.07;;;1.43;;
2772;SDS011;1394;47.044;15.744;2022-09-02T11:36:59;2.03;;;1.20;;
2772;SDS011;1394;47.044;15.744;2022-09-02T11:39:30;1.90;;;1.17;;
2772;SDS011;1394;47.044;15.744;2022-09-02T11:42:05;2.53;;;1.37;;
2772;SDS011;1394;47.044;15.744;2022-09-02T11:44:46;3.50;;;1.30;;
2772;SDS011;1394;47.044;15.744;2022-09-02T11:47:22;2.50;;;1.53;;
2772;SDS011;1394;47.044;15.744;2022-09-02T11:50:03;3.30;;;1.80;;
2772;SDS011;1394;47.044;15.744;2022-09-02T11:52:40;2.20;;;1.50;;
2772;SDS011;1394;47.044;15.744;2022-09-02T11:55:13;2.50;;;1.40;;
2772;SDS011;1394;47.044;15.744;2022-09-02T11:57:41;2.67;;;1.60;;
2772;SDS011;1394;47.044;15.744;2022-09-02T12:00:23;2.60;;;1.33;;
2772;SDS011;1394;47.044;15.744;2022-09-02T12:11:05;2.00;;;1.23;;
2772;SDS011;1394;47.044;15.744;2022-09-02T12:13:34;2.30;;;1.30;;
2772;SDS011;1394;47.044;15.744;2022-09-02T12:19:16;2.43;;;1.20;;
2772;SDS011;1394;47.044;15.744;2022-09-02T12:24:29;4.13;;;1.33;;
2772;SDS011;1394;47.044;15.744;2022-09-02T12:27:22;2.97;;;1.40;;
2772;SDS011;1394;47.044;15.744;2022-09-02T12:29:50;2.70;;;1.30;;
2772;SDS011;1394;47.044;15.744;2022-09-02T12:35:08;2.93;;;1.30;;
2772;SDS011;1394;47.044;15.744;2022-09-02T12:37:52;3.10;;;1.33;;
2772;SDS011;1394;47.044;15.744;2022-09-02T12:43:04;2.17;;;1.33;;
2772;SDS011;1394;47.044;15.744;2022-09-02T12:45:33;4.90;;;1.37;;
2772;SDS011;1394;47.044;15.744;2022-09-02T12:48:08;2.00;;;1.00;;
2772;SDS011;1394;47.044;15.744;2022-09-02T12:50:50;1.90;;;1.20;;
2772;SDS011;1394;47.044;15.744;2022-09-02T12:53:24;2.40;;;1.00;;
2772;SDS011;1394;47.044;15.744;2022-09-02T12:55:55;1.90;;;1.10;;
2772;SDS011;1394;47.044;15.744;2022-09-02T12:58:24;2.03;;;1.10;;
2772;SDS011;1394;47.044;15.744;2022-09-02T13:00:55;3.37;;;1.43;;
2772;SDS011;1394;47.044;15.744;2022-09-02T13:03:28;3.13;;;1.47;;
2772;SDS011;1394;47.044;15.744;2022-09-02T13:06:00;2.60;;;1.20;;
2772;SDS011;1394;47.044;15.744;2022-09-02T13:08:43;2.20;;;1.20;;
2772;SDS011;1394;47.044;15.744;2022-09-02T13:11:24;3.87;;;1.47;;
2772;SDS011;1394;47.044;15.744;2022-09-02T13:16:54;2.70;;;1.30;;
2772;SDS011;1394;47.044;15.744;2022-09-02T13:19:37;2.10;;;1.30;;
2772;SDS011;1394;47.044;15.744;2022-09-02T13:24:59;2.20;;;1.47;;
2772;SDS011;1394;47.044;15.744;2022-09-02T13:27:45;2.40;;;1.30;;
2772;SDS011;1394;47.044;15.744;2022-09-02T13:30:18;2.77;;;1.40;;
2772;SDS011;1394;47.044;15.744;2022-09-02T13:32:55;2.03;;;1.40;;
2772;SDS011;1394;47.044;15.744;2022-09-02T13:35:23;2.60;;;1.50;;
2772;SDS011;1394;47.044;15.744;2022-09-02T13:37:55;2.50;;;1.50;;
2772;SDS011;1394;47.044;15.744;2022-09-02T13:40:25;2.07;;;1.40;;
2772;SDS011;1394;47.044;15.744;2022-09-02T13:42:53;2.37;;;1.30;;
2772;SDS011;1394;47.044;15.744;2022-09-02T13:45:21;2.87;;;1.40;;
2772;SDS011;1394;47.044;15.744;2022-09-02T13:47:53;2.93;;;1.33;;
2772;SDS011;1394;47.044;15.744;2022-09-02T13:50:22;2.57;;;1.23;;
2772;SDS011;1394;47.044;15.744;2022-09-02T13:52:51;3.30;;;1.43;;
2772;SDS011;1394;47.044;15.744;2022-09-02T13:55:19;2.00;;;1.30;;
2772;SDS011;1394;47.044;15.744;2022-09-02T13:57:50;2.17;;;1.30;;
2772;SDS011;1394;47.044;15.744;2022-09-02T14:00:25;2.43;;;1.27;;
2772;SDS011;1394;47.044;15.744;2022-09-02T14:02:54;3.10;;;1.60;;
2772;SDS011;1394;47.044;15.744;2022-09-02T14:05:24;2.03;;;1.40;;
2772;SDS011;1394;47.044;15.744;2022-09-02T14:07:52;2.23;;;1.30;;
2772;SDS011;1394;47.044;15.744;2022-09-02T14:10:20;3.17;;;1.30;;
2772;SDS011;1394;47.044;15.744;2022-09-02T14:12:49;2.03;;;1.30;;
2772;SDS011;1394;47.044;15.744;2022-09-02T14:15:22;3.07;;;1.50;;
2772;SDS011;1394;47.044;15.744;2022-09-02T14:20:33;2.17;;;1.30;;
2772;SDS011;1394;47.044;15.744;2022-09-02T14:23:01;2.10;;;1.27;;
2772;SDS011;1394;47.044;15.744;2022-09-02T14:25:30;2.10;;;1.40;;
2772;SDS011;1394;47.044;15.744;2022-09-02T14:27:59;2.80;;;1.30;;
2772;SDS011;1394;47.044;15.744;2022-09-02T14:30:28;2.17;;;1.10;;
2772;SDS011;1394;47.044;15.744;2022-09-02T14:33:15;1.90;;;1.13;;
2772;SDS011;1394;47.044;15.744;2022-09-02T14:35:55;2.37;;;1.47;;
2772;SDS011;1394;47.044;15.744;2022-09-02T14:38:23;2.90;;;1.30;;
2772;SDS011;1394;47.044;15.744;2022-09-02T14:40:57;2.30;;;1.10;;
2772;SDS011;1394;47.044;15.744;2022-09-02T14:43:25;2.70;;;1.10;;
2772;SDS011;1394;47.044;15.744;2022-09-02T14:46:02;3.07;;;1.33;;
2772;SDS011;1394;47.044;15.744;2022-09-02T14:48:29;2.10;;;1.10;;
2772;SDS011;1394;47.044;15.744;2022-09-02T14:51:01;3.50;;;1.23;;
2772;SDS011;1394;47.044;15.744;2022-09-02T14:53:29;2.07;;;1.20;;
2772;SDS011;1394;47.044;15.744;2022-09-02T14:55:59;2.40;;;1.30;;
2772;SDS011;1394;47.044;15.744;2022-09-02T14:58:27;3.47;;;1.47;;
2772;SDS011;1394;47.044;15.744;2022-09-02T15:00:54;3.33;;;1.10;;
2772;SDS011;1394;47.044;15.744;2022-09-02T15:03:23;2.30;;;1.37;;
2772;SDS011;1394;47.044;15.744;2022-09-02T15:05:51;3.90;;;1.60;;
2772;SDS011;1394;47.044;15.744;2022-09-02T15:08:19;2.10;;;1.37;;
2772;SDS011;1394;47.044;15.744;2022-09-02T15:10:47;2.27;;;1.53;;
2772;SDS011;1394;47.044;15.744;2022-09-02T15:13:18;2.00;;;1.50;;
2772;SDS011;1394;47.044;15.744;2022-09-02T15:15:47;2.27;;;1.23;;
2772;SDS011;1394;47.044;15.744;2022-09-02T15:18:17;2.40;;;1.73;;
2772;SDS011;1394;47.044;15.744;2022-09-02T15:20:44;2.90;;;1.50;;
2772;SDS011;1394;47.044;15.744;2022-09-02T15:23:11;2.67;;;1.50;;
2772;SDS011;1394;47.044;15.744;2022-09-02T15:25:40;2.97;;;1.40;;
2772;SDS011;1394;47.044;15.744;2022-09-02T15:28:07;2.37;;;1.40;;
2772;SDS011;1394;47.044;15.744;2022-09-02T15:30:35;3.33;;;1.67;;
2772;SDS011;1394;47.044;15.744;2022-09-02T15:33:04;2.10;;;1.23;;
2772;SDS011;1394;47.044;15.744;2022-09-02T15:35:31;2.20;;;1.37;;
2772;SDS011;1394;47.044;15.744;2022-09-02T15:37:59;3.13;;;1.53;;
2772;SDS011;1394;47.044;15.744;2022-09-02T15:40:30;4.33;;;1.30;;
2772;SDS011;1394;47.044;15.744;2022-09-02T15:42:59;3.73;;;1.90;;
2772;SDS011;1394;47.044;15.744;2022-09-02T15:45:27;6.93;;;1.67;;
2772;SDS011;1394;47.044;15.744;2022-09-02T15:47:58;3.03;;;1.80;;